createdAt,value
2023-01-18T00:01:19.939Z,98494.19
2023-01-18T00:03:47.499Z,98487.88
2023-01-18T00:06:14.838Z,98485.28
2023-01-18T00:08:42.521Z,98480.06
2023-01-18T00:11:15.835Z,98477.50
2023-01-18T00:13:43.262Z,98482.03
2023-01-18T00:16:21.779Z,98476.78
2023-01-18T00:18:57.912Z,98476.38
2023-01-18T00:21:27.569Z,98468.16
2023-01-18T00:23:57.613Z,98457.06
2023-01-18T00:26:24.701Z,98462.00
2023-01-18T00:28:51.726Z,98467.13
2023-01-18T00:31:21.029Z,98466.19
2023-01-18T00:33:50.320Z,98462.53
2023-01-18T00:36:19.023Z,98465.63
2023-01-18T00:38:54.021Z,98470.66
2023-01-18T00:41:22.833Z,98472.78
2023-01-18T00:43:51.530Z,98471.97
2023-01-18T00:46:25.862Z,98471.94
2023-01-18T00:48:54.654Z,98480.34
2023-01-18T00:51:25.283Z,98475.56
2023-01-18T00:53:52.400Z,98478.16
2023-01-18T00:56:22.336Z,98477.44
2023-01-18T00:58:49.526Z,98471.28
2023-01-18T01:01:17.184Z,98468.00
2023-01-18T01:04:03.080Z,98467.56
2023-01-18T01:06:44.777Z,98476.81
2023-01-18T01:09:21.112Z,98477.91
2023-01-18T01:12:07.984Z,98477.81
2023-01-18T01:15:00.774Z,98482.56
2023-01-18T01:17:52.967Z,98490.91
2023-01-18T01:20:39.347Z,98501.88
2023-01-18T01:23:44.146Z,98498.03
2023-01-18T01:26:11.844Z,98504.22
2023-01-18T01:28:43.017Z,98503.41
2023-01-18T01:31:16.489Z,98519.97
2023-01-18T01:33:45.270Z,98525.94
2023-01-18T01:36:17.213Z,98528.69
2023-01-18T01:38:44.779Z,98531.75
2023-01-18T01:41:32.653Z,98535.09
2023-01-18T01:44:18.423Z,98535.09
2023-01-18T01:46:54.934Z,98540.94
2023-01-18T01:49:34.685Z,98539.00
2023-01-18T01:52:14.779Z,98544.38
2023-01-18T01:54:56.861Z,98553.56
2023-01-18T01:57:34.519Z,98547.63
2023-01-18T02:00:19.533Z,98546.50
2023-01-18T02:03:01.350Z,98563.22
2023-01-18T02:05:31.757Z,98570.66
2023-01-18T02:08:02.127Z,98561.81
2023-01-18T02:10:30.592Z,98569.16
2023-01-18T02:13:00.128Z,98571.94
2023-01-18T02:15:43.253Z,98564.69
2023-01-18T02:18:29.741Z,98564.81
2023-01-18T02:21:40.461Z,98568.03
2023-01-18T02:25:06.294Z,98562.56
2023-01-18T02:27:46.358Z,98548.03
2023-01-18T02:30:41.583Z,98546.84
2023-01-18T02:33:47.150Z,98556.19
2023-01-18T02:36:39.805Z,98547.94
2023-01-18T02:39:28.642Z,98548.03
2023-01-18T02:42:32.127Z,98535.84
2023-01-18T02:45:21.019Z,98544.56
2023-01-18T02:47:48.914Z,98539.31
2023-01-18T02:50:27.066Z,98545.44
2023-01-18T02:52:54.678Z,98548.13
2023-01-18T02:56:19.101Z,98551.63
2023-01-18T02:58:55.028Z,98563.34
2023-01-18T03:01:44.941Z,98568.41
2023-01-18T03:04:36.796Z,98565.13
2023-01-18T03:07:21.585Z,98566.50
2023-01-18T03:09:49.031Z,98568.88
2023-01-18T03:12:58.682Z,98585.44
2023-01-18T03:16:06.786Z,98574.28
2023-01-18T03:19:02.308Z,98571.63
2023-01-18T03:21:47.423Z,98559.84
2023-01-18T03:24:16.514Z,98565.53
2023-01-18T03:26:51.050Z,98570.09
2023-01-18T03:29:39.337Z,98563.06
2023-01-18T03:32:33.790Z,98558.75
2023-01-18T03:35:13.405Z,98568.00
2023-01-18T03:37:49.088Z,98559.50
2023-01-18T03:40:27.957Z,98563.97
2023-01-18T03:43:16.147Z,98576.69
2023-01-18T03:45:49.378Z,98575.97
2023-01-18T03:48:16.939Z,98570.09
2023-01-18T03:51:23.691Z,98563.69
2023-01-18T03:54:23.974Z,98575.13
2023-01-18T03:57:33.778Z,98578.69
2023-01-18T04:00:05.948Z,98564.22
2023-01-18T04:02:33.326Z,98564.06
2023-01-18T04:05:03.616Z,98565.28
2023-01-18T04:07:32.071Z,98573.75
2023-01-18T04:10:00.381Z,98568.63
2023-01-18T04:12:27.771Z,98565.72
2023-01-18T04:14:54.888Z,98566.97
2023-01-18T04:17:21.924Z,98567.34
2023-01-18T04:19:49.039Z,98569.25
2023-01-18T04:22:16.612Z,98567.63
2023-01-18T04:24:43.725Z,98570.56
2023-01-18T04:27:10.913Z,98572.31
2023-01-18T04:29:38.236Z,98564.53
2023-01-18T04:32:06.444Z,98563.47
2023-01-18T04:34:34.088Z,98569.16
2023-01-18T04:37:01.156Z,98570.34
2023-01-18T04:39:28.265Z,98567.53
2023-01-18T04:41:57.178Z,98558.94
2023-01-18T04:44:24.825Z,98558.75
2023-01-18T04:46:51.869Z,98559.66
2023-01-18T04:49:18.989Z,98562.56
2023-01-18T04:51:47.274Z,98566.97
2023-01-18T04:54:19.028Z,98567.44
2023-01-18T04:56:46.144Z,98578.13
2023-01-18T04:59:16.273Z,98578.66
2023-01-18T05:01:43.480Z,98579.22
2023-01-18T05:04:10.879Z,98580.91
2023-01-18T05:06:37.985Z,98582.16
2023-01-18T05:09:05.160Z,98582.72
2023-01-18T05:11:32.323Z,98583.97
2023-01-18T05:14:00.865Z,98581.41
2023-01-18T05:16:28.129Z,98589.03
2023-01-18T05:18:55.242Z,98594.34
2023-01-18T05:21:22.642Z,98598.63
2023-01-18T05:23:49.981Z,98602.31
2023-01-18T05:26:23.986Z,98602.03
2023-01-18T05:28:56.761Z,98606.88
2023-01-18T05:31:24.518Z,98613.09
2023-01-18T05:33:52.005Z,98615.47
2023-01-18T05:36:19.039Z,98617.75
2023-01-18T05:38:47.127Z,98625.09
2023-01-18T05:41:14.157Z,98631.88
2023-01-18T05:43:41.236Z,98635.75
2023-01-18T05:46:08.369Z,98637.91
2023-01-18T05:48:35.472Z,98639.09
2023-01-18T05:51:09.263Z,98646.63
2023-01-18T05:53:36.371Z,98632.41
2023-01-18T05:56:08.525Z,98634.81
2023-01-18T05:58:35.875Z,98637.41
2023-01-18T06:01:02.993Z,98641.28
2023-01-18T06:03:30.302Z,98640.69
2023-01-18T06:05:59.149Z,98639.59
2023-01-18T06:08:29.637Z,98632.97
2023-01-18T06:10:59.640Z,98637.69
2023-01-18T06:13:36.148Z,98639.44
2023-01-18T06:16:04.189Z,98641.16
2023-01-18T06:18:33.339Z,98648.94
2023-01-18T06:21:03.317Z,98646.72
2023-01-18T06:24:19.709Z,98655.47
2023-01-18T06:26:47.073Z,98656.22
2023-01-18T06:29:14.060Z,98669.66
2023-01-18T06:31:41.353Z,98670.78
2023-01-18T06:34:09.411Z,98666.66
2023-01-18T06:36:42.156Z,98669.88
2023-01-18T06:39:09.228Z,98672.25
2023-01-18T06:41:36.329Z,98678.09
2023-01-18T06:44:06.323Z,98684.63
2023-01-18T06:46:35.534Z,98688.00
2023-01-18T06:49:02.603Z,98693.47
2023-01-18T06:51:29.642Z,98684.34
2023-01-18T06:53:56.679Z,98692.97
2023-01-18T06:56:26.833Z,98693.03
2023-01-18T06:58:55.851Z,98693.31
2023-01-18T07:01:24.911Z,98692.56
2023-01-18T07:03:58.240Z,98695.13
2023-01-18T07:06:25.686Z,98698.63
2023-01-18T07:08:52.875Z,98706.94
2023-01-18T07:11:19.938Z,98705.56
2023-01-18T07:13:47.250Z,98709.78
2023-01-18T07:16:17.955Z,98717.22
2023-01-18T07:18:49.815Z,98719.88
2023-01-18T07:21:19.309Z,98710.44
2023-01-18T07:23:46.417Z,98707.97
2023-01-18T07:26:17.250Z,98714.72
2023-01-18T07:28:46.213Z,98725.47
2023-01-18T07:31:14.887Z,98725.25
2023-01-18T07:33:42.080Z,98727.22
2023-01-18T07:36:10.850Z,98730.22
2023-01-18T07:38:39.313Z,98738.47
2023-01-18T07:41:14.093Z,98738.16
2023-01-18T07:43:44.595Z,98741.31
2023-01-18T07:46:16.998Z,98744.03
2023-01-18T07:48:44.879Z,98740.56
2023-01-18T07:51:15.289Z,98736.44
2023-01-18T07:53:42.472Z,98733.69
2023-01-18T07:56:15.937Z,98731.22
2023-01-18T07:58:45.782Z,98729.03
2023-01-18T08:01:20.855Z,98718.38
2023-01-18T08:03:49.980Z,98721.03
2023-01-18T08:06:24.974Z,98720.88
2023-01-18T08:08:54.556Z,98721.50
2023-01-18T08:11:21.599Z,98726.44
2023-01-18T08:13:49.289Z,98726.44
2023-01-18T08:16:16.590Z,98731.03
2023-01-18T08:18:47.512Z,98721.84
2023-01-18T08:21:14.692Z,98725.72
2023-01-18T08:23:42.274Z,98722.84
2023-01-18T08:26:10.685Z,98724.66
2023-01-18T08:28:37.846Z,98725.13
2023-01-18T08:31:14.318Z,98718.91
2023-01-18T08:33:45.940Z,98719.50
2023-01-18T08:36:20.221Z,98725.44
2023-01-18T08:38:57.017Z,98721.50
2023-01-18T08:41:28.857Z,98726.25
2023-01-18T08:43:57.634Z,98733.47
2023-01-18T08:46:25.877Z,98737.59
2023-01-18T08:48:56.920Z,98736.00
2023-01-18T08:51:25.963Z,98736.22
2023-01-18T08:53:56.428Z,98741.53
2023-01-18T08:56:23.446Z,98738.00
2023-01-18T08:58:52.130Z,98738.78
2023-01-18T09:01:19.621Z,98737.59
2023-01-18T09:03:48.746Z,98737.09
2023-01-18T09:06:16.688Z,98745.75
2023-01-18T09:08:47.720Z,98745.78
2023-01-18T09:11:15.659Z,98747.06
2023-01-18T09:13:59.464Z,98749.78
2023-01-18T09:16:27.444Z,98749.50
2023-01-18T09:18:56.159Z,98750.50
2023-01-18T09:21:24.208Z,98749.88
2023-01-18T09:23:54.153Z,98754.72
2023-01-18T09:26:21.230Z,98756.88
2023-01-18T09:28:52.716Z,98760.41
2023-01-18T09:31:40.447Z,98768.63
2023-01-18T09:34:18.774Z,98766.59
2023-01-18T09:36:51.645Z,98769.00
2023-01-18T09:39:21.260Z,98768.66
2023-01-18T09:41:59.768Z,98772.59
2023-01-18T09:44:42.168Z,98775.91
2023-01-18T09:47:27.392Z,98768.47
2023-01-18T09:50:02.927Z,98777.94
2023-01-18T09:52:32.863Z,98776.09
2023-01-18T09:55:51.651Z,98777.72
2023-01-18T09:58:41.290Z,98776.28
2023-01-18T10:01:33.037Z,98780.91
2023-01-18T10:04:30.122Z,98778.03
2023-01-18T10:07:12.315Z,98779.06
2023-01-18T10:09:54.608Z,98778.91
2023-01-18T10:12:42.274Z,98775.59
2023-01-18T10:15:27.772Z,98774.63
2023-01-18T10:17:57.616Z,98774.25
2023-01-18T10:20:44.553Z,98784.09
2023-01-18T10:23:35.584Z,98771.91
2023-01-18T10:26:16.678Z,98783.94
2023-01-18T10:29:14.422Z,98781.69
2023-01-18T10:32:04.536Z,98781.03
2023-01-18T10:34:39.306Z,98774.72
2023-01-18T10:37:37.637Z,98775.06
2023-01-18T10:40:10.184Z,98773.31
2023-01-18T10:42:57.148Z,98782.03
2023-01-18T10:45:34.640Z,98785.88
2023-01-18T10:48:34.796Z,98792.59
2023-01-18T10:51:06.675Z,98787.13
2023-01-18T10:53:39.426Z,98794.31
2023-01-18T10:56:26.707Z,98793.31
2023-01-18T10:59:00.957Z,98792.28
2023-01-18T11:01:36.239Z,98793.72
2023-01-18T11:04:29.905Z,98794.03
2023-01-18T11:07:03.987Z,98788.38
2023-01-18T11:09:51.433Z,98792.81
2023-01-18T11:12:45.581Z,98794.19
2023-01-18T11:15:15.511Z,98795.16
2023-01-18T11:17:56.271Z,98804.69
2023-01-18T11:20:51.966Z,98806.06
2023-01-18T11:23:36.365Z,98812.34
2023-01-18T11:26:14.959Z,98815.44
2023-01-18T11:29:06.639Z,98810.66
2023-01-18T11:31:47.724Z,98818.06
2023-01-18T11:34:31.658Z,98817.50
2023-01-18T11:37:01.264Z,98817.97
2023-01-18T11:39:37.766Z,98815.13
2023-01-18T11:42:35.097Z,98814.41
2023-01-18T11:45:59.513Z,98820.44
2023-01-18T11:48:41.472Z,98814.03
2023-01-18T11:51:50.489Z,98821.16
2023-01-18T11:54:49.399Z,98820.38
2023-01-18T11:57:16.606Z,98821.16
2023-01-18T11:59:46.138Z,98815.75
2023-01-18T12:03:40.115Z,98820.38
2023-01-18T12:06:38.776Z,98815.66
2023-01-18T12:09:19.125Z,98824.97
2023-01-18T12:12:29.854Z,98821.78
2023-01-18T12:15:22.429Z,98828.94
2023-01-18T12:18:32.778Z,98834.03
2023-01-18T12:21:31.300Z,98827.28
2023-01-18T12:24:42.565Z,98832.34
2023-01-18T12:27:43.936Z,98838.69
2023-01-18T12:31:05.568Z,98839.38
2023-01-18T12:34:00.222Z,98843.47
2023-01-18T12:37:07.834Z,98839.38
2023-01-18T12:40:24.654Z,98854.06
2023-01-18T12:43:14.170Z,98851.41
2023-01-18T12:46:04.651Z,98855.09
2023-01-18T12:48:42.243Z,98858.66
2023-01-18T12:51:21.217Z,98857.00
2023-01-18T12:54:02.747Z,98856.97
2023-01-18T12:56:46.433Z,98866.28
2023-01-18T12:59:27.981Z,98872.16
2023-01-18T13:02:33.605Z,98875.25
2023-01-18T13:05:37.791Z,98886.16
2023-01-18T13:08:20.223Z,98882.13
2023-01-18T13:10:48.418Z,98886.16
2023-01-18T13:13:26.969Z,98889.84
2023-01-18T13:16:19.762Z,98900.38
2023-01-18T13:19:14.118Z,98902.03
2023-01-18T13:22:28.609Z,98908.03
2023-01-18T13:25:46.297Z,98920.31
2023-01-18T13:28:24.858Z,98916.63
2023-01-18T13:31:03.028Z,98919.59
2023-01-18T13:33:45.551Z,98919.47
2023-01-18T13:36:17.968Z,98930.06
2023-01-18T13:39:07.956Z,98926.09
2023-01-18T13:41:35.036Z,98926.56
2023-01-18T13:44:46.006Z,98937.38
2023-01-18T13:47:46.795Z,98937.53
2023-01-18T13:50:28.909Z,98938.38
2023-01-18T13:53:31.467Z,98943.63
2023-01-18T13:56:05.041Z,98946.09
2023-01-18T13:58:35.924Z,98957.03
2023-01-18T14:01:18.305Z,98960.13
2023-01-18T14:03:49.225Z,98962.34
2023-01-18T14:06:32.518Z,98969.09
2023-01-18T14:09:12.299Z,98975.50
2023-01-18T14:11:49.454Z,98973.34
2023-01-18T14:14:17.717Z,98975.81
2023-01-18T14:17:07.859Z,98978.53
2023-01-18T14:19:57.405Z,98980.47
2023-01-18T14:22:54.965Z,98985.00
2023-01-18T14:26:15.228Z,99000.47
2023-01-18T14:28:57.188Z,99002.22
2023-01-18T14:31:33.405Z,99013.72
2023-01-18T14:34:31.905Z,99015.75
2023-01-18T14:36:59.723Z,99009.03
2023-01-18T14:39:30.021Z,99023.31
2023-01-18T14:42:04.214Z,99021.75
2023-01-18T14:44:57.923Z,99032.28
2023-01-18T14:47:31.308Z,99033.53
2023-01-18T14:50:01.657Z,99044.78
2023-01-18T14:52:34.484Z,99047.25
2023-01-18T14:55:02.403Z,99046.00
2023-01-18T14:57:29.451Z,99048.28
2023-01-18T15:00:21.493Z,99054.66
2023-01-18T15:02:49.032Z,99067.91
2023-01-18T15:05:20.856Z,99069.53
2023-01-18T15:07:55.733Z,99060.75
2023-01-18T15:10:24.191Z,99075.72
2023-01-18T15:12:58.051Z,99071.88
2023-01-18T15:15:39.858Z,99073.44
2023-01-18T15:18:23.381Z,99081.47
2023-01-18T15:21:12.753Z,99082.53
2023-01-18T15:23:41.278Z,99080.69
2023-01-18T15:26:08.332Z,99090.72
2023-01-18T15:28:35.577Z,99092.59
2023-01-18T15:31:15.865Z,99099.09
2023-01-18T15:33:44.739Z,99104.53
2023-01-18T15:36:12.387Z,99107.94
2023-01-18T15:38:39.999Z,99115.63
2023-01-18T15:41:14.570Z,99116.91
2023-01-18T15:43:44.810Z,99126.19
2023-01-18T15:46:17.056Z,99130.94
2023-01-18T15:48:56.641Z,99135.88
2023-01-18T15:51:44.436Z,99134.84
2023-01-18T15:54:25.606Z,99139.69
2023-01-18T15:56:56.249Z,99149.69
2023-01-18T15:59:28.074Z,99144.25
2023-01-18T16:02:18.890Z,99154.81
2023-01-18T16:05:23.026Z,99159.06
2023-01-18T16:07:55.300Z,99157.94
2023-01-18T16:10:30.142Z,99168.78
2023-01-18T16:13:26.016Z,99170.63
2023-01-18T16:16:24.364Z,99171.94
2023-01-18T16:19:30.662Z,99173.59
2023-01-18T16:22:16.051Z,99176.19
2023-01-18T16:25:10.076Z,99186.16
2023-01-18T16:27:55.686Z,99190.72
2023-01-18T16:30:38.257Z,99189.97
2023-01-18T16:33:14.288Z,99195.88
2023-01-18T16:35:42.092Z,99201.84
2023-01-18T16:38:20.316Z,99204.47
2023-01-18T16:40:50.270Z,99201.53
2023-01-18T16:43:29.406Z,99206.50
2023-01-18T16:45:59.869Z,99216.00
2023-01-18T16:48:29.423Z,99226.50
2023-01-18T16:50:59.551Z,99223.38
2023-01-18T16:53:28.257Z,99224.47
2023-01-18T16:55:58.580Z,99232.75
2023-01-18T16:58:26.294Z,99233.59
2023-01-18T17:01:11.465Z,99231.53
2023-01-18T17:03:39.479Z,99236.41
2023-01-18T17:06:07.356Z,99242.31
2023-01-18T17:08:34.396Z,99249.94
2023-01-18T17:11:01.457Z,99251.53
2023-01-18T17:13:28.558Z,99249.94
2023-01-18T17:15:55.530Z,99254.28
2023-01-18T17:18:25.723Z,99256.66
2023-01-18T17:20:54.970Z,99258.09
2023-01-18T17:23:23.186Z,99267.66
2023-01-18T17:25:50.221Z,99263.47
2023-01-18T17:28:19.067Z,99277.88
2023-01-18T17:30:50.039Z,99277.81
2023-01-18T17:33:24.637Z,99281.03
2023-01-18T17:35:54.571Z,99287.84
2023-01-18T17:38:25.154Z,99291.16
2023-01-18T17:40:52.986Z,99295.47
2023-01-18T17:43:36.540Z,99296.56
2023-01-18T17:46:06.598Z,99302.91
2023-01-18T17:48:34.283Z,99295.31
2023-01-18T17:51:01.425Z,99304.78
2023-01-18T17:53:28.610Z,99303.66
2023-01-18T17:55:55.660Z,99312.03
2023-01-18T17:58:23.092Z,99319.50
2023-01-18T18:00:52.507Z,99312.22
2023-01-18T18:03:20.626Z,99321.41
2023-01-18T18:05:48.008Z,99325.81
2023-01-18T18:08:17.441Z,99325.09
2023-01-18T18:10:44.478Z,99322.41
2023-01-18T18:13:11.589Z,99333.00
2023-01-18T18:15:38.710Z,99336.09
2023-01-18T18:18:12.290Z,99341.78
2023-01-18T18:20:49.737Z,99342.72
2023-01-18T18:23:17.217Z,99344.19
2023-01-18T18:25:46.027Z,99345.84
2023-01-18T18:28:13.167Z,99345.28
2023-01-18T18:30:40.352Z,99339.06
2023-01-18T18:33:07.637Z,99348.53
2023-01-18T18:35:34.739Z,99348.59
2023-01-18T18:38:01.819Z,99357.78
2023-01-18T18:40:28.852Z,99354.63
2023-01-18T18:43:02.272Z,99355.69
2023-01-18T18:45:31.940Z,99360.03
2023-01-18T18:48:00.140Z,99361.66
2023-01-18T18:50:27.796Z,99362.50
2023-01-18T18:52:54.863Z,99366.16
2023-01-18T18:55:21.995Z,99370.13
2023-01-18T18:57:51.097Z,99378.50
2023-01-18T19:00:18.977Z,99375.56
2023-01-18T19:02:46.316Z,99376.81
2023-01-18T19:05:13.387Z,99383.88
2023-01-18T19:07:42.308Z,99388.69
2023-01-18T19:10:11.466Z,99387.88
2023-01-18T19:12:38.512Z,99385.53
2023-01-18T19:15:06.340Z,99388.28
2023-01-18T19:17:33.688Z,99394.47
2023-01-18T19:20:00.705Z,99398.16
2023-01-18T19:22:27.735Z,99402.78
2023-01-18T19:24:54.775Z,99402.88
2023-01-18T19:27:24.417Z,99401.56
2023-01-18T19:29:53.200Z,99410.91
2023-01-18T19:32:20.516Z,99408.59
2023-01-18T19:34:47.507Z,99406.09
2023-01-18T19:37:14.568Z,99419.69
2023-01-18T19:39:41.790Z,99414.91
2023-01-18T19:42:08.866Z,99420.34
2023-01-18T19:44:36.007Z,99423.69
2023-01-18T19:47:03.324Z,99432.28
2023-01-18T19:49:32.991Z,99423.34
2023-01-18T19:51:59.974Z,99428.56
2023-01-18T19:54:27.073Z,99420.16
2023-01-18T19:56:54.143Z,99427.22
2023-01-18T19:59:21.182Z,99434.75
2023-01-18T20:01:48.367Z,99429.81
2023-01-18T20:04:15.744Z,99432.59
2023-01-18T20:06:46.114Z,99432.81
2023-01-18T20:09:26.985Z,99439.22
2023-01-18T20:11:59.735Z,99442.06
2023-01-18T20:14:40.395Z,99444.50
2023-01-18T20:17:10.615Z,99445.47
2023-01-18T20:19:37.634Z,99452.69
2023-01-18T20:22:04.673Z,99455.25
2023-01-18T20:24:31.734Z,99459.53
2023-01-18T20:27:14.989Z,99455.38
2023-01-18T20:29:43.363Z,99457.34
2023-01-18T20:32:16.569Z,99455.78
2023-01-18T20:34:47.925Z,99457.66
2023-01-18T20:37:16.403Z,99455.25
2023-01-18T20:39:43.627Z,99463.13
2023-01-18T20:42:10.726Z,99468.69
2023-01-18T20:44:38.096Z,99469.75
2023-01-18T20:47:05.623Z,99470.50
2023-01-18T20:49:38.339Z,99469.75
2023-01-18T20:52:07.454Z,99478.59
2023-01-18T20:54:37.807Z,99472.63
2023-01-18T20:57:09.393Z,99472.75
2023-01-18T20:59:36.440Z,99474.31
2023-01-18T21:02:04.251Z,99478.00
2023-01-18T21:04:31.414Z,99479.91
2023-01-18T21:06:58.733Z,99481.19
2023-01-18T21:09:26.138Z,99484.50
2023-01-18T21:11:53.327Z,99489.34
2023-01-18T21:14:20.432Z,99492.66
2023-01-18T21:16:48.070Z,99495.31
2023-01-18T21:19:15.184Z,99502.38
2023-01-18T21:21:42.339Z,99503.19
2023-01-18T21:24:09.382Z,99510.91
2023-01-18T21:26:37.664Z,99513.47
2023-01-18T21:29:05.616Z,99510.97
2023-01-18T21:31:32.789Z,99517.94
2023-01-18T21:33:59.888Z,99524.84
2023-01-18T21:36:27.928Z,99527.63
2023-01-18T21:38:55.257Z,99530.06
2023-01-18T21:41:40.603Z,99533.59
2023-01-18T21:44:26.141Z,99526.72
2023-01-18T21:46:53.170Z,99525.13
2023-01-18T21:50:04.073Z,99533.06
2023-01-18T21:52:47.760Z,99533.31
2023-01-18T21:55:15.614Z,99533.38
2023-01-18T21:57:42.953Z,99528.63
2023-01-18T22:00:11.520Z,99535.38
2023-01-18T22:02:38.631Z,99539.56
2023-01-18T22:05:08.468Z,99545.03
2023-01-18T22:07:35.534Z,99545.78
2023-01-18T22:10:05.944Z,99546.88
2023-01-18T22:12:35.516Z,99543.13
2023-01-18T22:15:06.980Z,99548.34
2023-01-18T22:17:34.080Z,99549.81
2023-01-18T22:20:01.781Z,99549.16
2023-01-18T22:22:28.964Z,99553.56
2023-01-18T22:24:56.984Z,99555.53
2023-01-18T22:27:24.059Z,99553.81
2023-01-18T22:29:53.091Z,99564.00
2023-01-18T22:32:21.560Z,99567.50
2023-01-18T22:34:48.564Z,99567.63
2023-01-18T22:37:15.580Z,99573.56
2023-01-18T22:39:42.581Z,99577.78
2023-01-18T22:42:09.599Z,99573.25
2023-01-18T22:44:37.432Z,99579.31
2023-01-18T22:47:04.519Z,99578.97
2023-01-18T22:49:31.511Z,99591.19
2023-01-18T22:51:58.559Z,99590.72
2023-01-18T22:54:25.729Z,99596.41
2023-01-18T22:56:52.721Z,99602.47
2023-01-18T22:59:19.741Z,99600.72
2023-01-18T23:01:46.770Z,99595.63
2023-01-18T23:04:13.798Z,99598.03
2023-01-18T23:06:47.734Z,99600.19
2023-01-18T23:09:17.578Z,99594.91
2023-01-18T23:11:47.308Z,99605.81
2023-01-18T23:14:32.951Z,99605.38
2023-01-18T23:17:18.668Z,99603.41
2023-01-18T23:19:45.700Z,99603.53
2023-01-18T23:22:12.835Z,99605.97
2023-01-18T23:24:40.042Z,99608.34
2023-01-18T23:27:11.941Z,99609.84
2023-01-18T23:29:39.775Z,99609.13
2023-01-18T23:32:07.949Z,99613.00
2023-01-18T23:34:35.309Z,99608.72
2023-01-18T23:37:02.624Z,99598.41
2023-01-18T23:39:48.421Z,99599.28
2023-01-18T23:42:33.863Z,99604.41
2023-01-18T23:45:19.831Z,99607.75
2023-01-18T23:48:05.404Z,99610.50
2023-01-18T23:50:50.642Z,99608.47
2023-01-18T23:53:36.237Z,99620.31
2023-01-18T23:56:03.248Z,99619.00
2023-01-18T23:58:30.244Z,99619.78
